Time;durP1;ratioP1;P1;durP2;ratioP2;P2;SDS_P1;SDS_P2;PMS_P1;PMS_P2;Temp;Humidity;BMP_temperature;BMP_pressure;BME280_temperature;BME280_humidity;BME280_pressure;Samples;Min_cycle;Max_cycle;Signal;HPM_P1;HPM_P2
2021/10/20 00:00:18;;;;;;;18.10;12.23;;;;;;;13.80;56.35;100184.19;5087977;28;20055;-70
2021/10/20 00:02:47;;;;;;;16.50;12.02;;;;;;;13.79;56.32;100179.84;5086666;28;20082;-71
2021/10/20 00:05:14;;;;;;;17.38;11.40;;;;;;;13.79;56.24;100177.19;5088263;28;20628;-72
2021/10/20 00:07:41;;;;;;;16.42;11.77;;;;;;;13.80;56.22;100174.41;5088362;28;20040;-71
2021/10/20 00:10:08;;;;;;;17.85;13.13;;;;;;;13.80;56.22;100171.75;5084997;28;20044;-71
2021/10/20 00:12:35;;;;;;;15.65;11.80;;;;;;;13.82;56.36;100163.66;5087876;28;20503;-70
2021/10/20 00:15:04;;;;;;;18.55;12.88;;;;;;;13.84;56.21;100164.34;5086940;28;20058;-69
2021/10/20 00:17:34;;;;;;;15.48;12.20;;;;;;;13.86;56.08;100155.28;5090912;28;20131;-69
2021/10/20 00:20:06;;;;;;;20.42;12.20;;;;;;;13.87;56.00;100159.63;5087396;28;20051;-70
2021/10/20 00:22:33;;;;;;;16.88;11.30;;;;;;;13.90;56.05;100150.53;5087003;28;20048;-70
2021/10/20 00:25:00;;;;;;;14.85;10.68;;;;;;;13.92;56.11;100154.75;5087625;28;20071;-69
2021/10/20 00:27:28;;;;;;;14.80;10.98;;;;;;;13.93;55.92;100145.78;5088333;28;20048;-70
2021/10/20 00:29:55;;;;;;;19.38;12.93;;;;;;;13.93;55.91;100137.81;5086505;28;20055;-70
2021/10/20 00:32:22;;;;;;;20.60;12.23;;;;;;;13.95;56.04;100138.56;5086773;28;20079;-71
2021/10/20 00:34:51;;;;;;;20.25;12.85;;;;;;;13.97;56.02;100130.44;5030890;28;20044;-69
2021/10/20 00:37:18;;;;;;;19.35;12.93;;;;;;;14.00;55.86;100124.03;5084651;28;20051;-68
2021/10/20 00:39:45;;;;;;;18.98;12.93;;;;;;;14.00;55.72;100118.72;5086882;28;20048;-70
2021/10/20 00:42:12;;;;;;;19.20;12.50;;;;;;;14.02;55.85;100122.06;5086283;28;20417;-68
2021/10/20 00:44:46;;;;;;;18.90;12.23;;;;;;;14.05;55.79;100109.34;5087476;28;20510;-71
2021/10/20 00:47:13;;;;;;;19.77;11.13;;;;;;;14.09;55.66;100113.41;5085996;28;20052;-70
2021/10/20 00:49:40;;;;;;;13.35;10.25;;;;;;;14.08;55.69;100105.56;5087041;28;20297;-70
2021/10/20 00:52:08;;;;;;;18.80;12.15;;;;;;;14.08;55.81;100100.25;5086329;28;20055;-70
2021/10/20 00:54:36;;;;;;;19.98;12.88;;;;;;;14.08;55.79;100100.25;5086966;28;20641;-70
2021/10/20 00:57:04;;;;;;;18.33;12.00;;;;;;;14.07;55.79;100094.13;5087491;28;20048;-70
2021/10/20 00:59:31;;;;;;;19.15;11.40;;;;;;;14.09;55.62;100096.63;5086798;28;20051;-70
2021/10/20 01:01:58;;;;;;;16.77;12.23;;;;;;;14.15;55.57;100099.59;5088223;28;20507;-70
2021/10/20 01:04:26;;;;;;;16.67;11.27;;;;;;;14.15;55.71;100094.28;5087811;28;20492;-70
2021/10/20 01:06:52;;;;;;;18.75;11.35;;;;;;;14.16;55.77;100097.78;5087083;28;20062;-69
2021/10/20 01:09:21;;;;;;;18.30;13.77;;;;;;;14.09;56.20;100086.00;5087238;28;20064;-69
2021/10/20 01:11:48;;;;;;;16.83;11.85;;;;;;;14.06;56.59;100083.63;5086161;28;20048;-69
2021/10/20 01:14:15;;;;;;;21.63;13.00;;;;;;;13.98;56.78;100073.69;5088143;28;20044;-70
2021/10/20 01:16:43;;;;;;;20.05;12.90;;;;;;;13.91;57.20;100073.41;5087709;28;20044;-71
2021/10/20 01:19:11;;;;;;;21.27;12.35;;;;;;;13.87;57.30;100072.00;5086953;28;20051;-71
2021/10/20 01:21:39;;;;;;;18.77;12.43;;;;;;;13.87;57.53;100066.69;5086941;28;20060;-69
2021/10/20 01:24:07;;;;;;;26.17;14.27;;;;;;;13.88;57.61;100055.13;5087195;28;20047;-71
2021/10/20 01:26:34;;;;;;;18.88;13.10;;;;;;;13.92;57.63;100056.50;5087844;28;20074;-70
2021/10/20 01:29:01;;;;;;;19.38;13.38;;;;;;;13.93;57.71;100054.69;5087058;28;20082;-70
2021/10/20 01:31:28;;;;;;;18.02;12.00;;;;;;;13.94;57.75;100049.25;5085964;28;20056;-71
2021/10/20 01:33:55;;;;;;;17.90;13.18;;;;;;;13.96;57.76;100049.13;5086547;28;20047;-71
2021/10/20 01:36:31;;;;;;;16.73;12.10;;;;;;;14.02;57.73;100048.53;5086431;28;20047;-68
2021/10/20 01:38:59;;;;;;;19.48;12.27;;;;;;;14.02;57.75;100043.22;5086565;28;20051;-69
2021/10/20 01:41:27;;;;;;;17.70;11.50;;;;;;;14.05;57.77;100042.97;5085274;28;20071;-69
2021/10/20 01:43:54;;;;;;;19.60;12.00;;;;;;;14.05;57.86;100042.13;5087443;28;20082;-69
2021/10/20 01:46:23;;;;;;;17.15;11.57;;;;;;;14.05;57.98;100029.69;5086507;28;20048;-70
2021/10/20 01:48:50;;;;;;;19.33;11.10;;;;;;;14.05;58.10;100031.50;5087042;28;20044;-69
2021/10/20 01:51:17;;;;;;;16.83;12.15;;;;;;;14.02;58.05;100027.31;5086523;28;20048;-69
2021/10/20 01:53:45;;;;;;;15.77;10.82;;;;;;;14.02;58.16;100026.47;5086652;28;20048;-70
2021/10/20 01:56:13;;;;;;;16.23;11.27;;;;;;;14.02;58.27;100037.09;5086248;28;20086;-70
2021/10/20 01:58:40;;;;;;;19.45;11.52;;;;;;;14.04;58.15;100037.78;5086170;28;20044;-70
2021/10/20 02:01:08;;;;;;;19.67;11.80;;;;;;;14.03;58.25;100030.81;5085903;28;20050;-70
2021/10/20 02:03:36;;;;;;;16.88;11.43;;;;;;;14.04;58.29;100025.34;5086445;28;20067;-69
2021/10/20 02:06:03;;;;;;;16.67;12.45;;;;;;;14.07;58.33;100024.25;5086310;28;20622;-69
2021/10/20 02:08:30;;;;;;;15.65;11.73;;;;;;;14.11;58.18;100009.69;5085877;28;20052;-70
2021/10/20 02:10:57;;;;;;;17.88;12.40;;;;;;;14.12;58.20;100011.38;5084433;28;20392;-69
2021/10/20 02:13:26;;;;;;;16.55;11.52;;;;;;;14.18;58.06;100010.81;5086232;28;20541;-70
2021/10/20 02:15:53;;;;;;;17.77;11.70;;;;;;;14.21;58.17;100004.41;5086258;28;20402;-69
2021/10/20 02:18:20;;;;;;;12.77;10.73;;;;;;;14.22;58.15;100001.56;5085279;28;20468;-71
2021/10/20 02:20:47;;;;;;;15.43;10.63;;;;;;;14.24;58.09;99996.13;5086076;28;20056;-70
2021/10/20 02:23:14;;;;;;;16.38;11.80;;;;;;;14.27;58.00;99993.19;5086026;28;20044;-70
2021/10/20 02:25:41;;;;;;;14.10;10.63;;;;;;;14.30;57.92;99988.44;5085594;28;20059;-69
2021/10/20 02:28:08;;;;;;;13.80;10.60;;;;;;;14.33;57.84;99995.28;5085454;28;20404;-70
2021/10/20 02:30:37;;;;;;;19.17;9.98;;;;;;;14.36;57.63;99991.50;5085352;28;20055;-69
2021/10/20 02:33:04;;;;;;;15.07;10.70;;;;;;;14.41;57.66;99984.78;5085784;28;20052;-70
2021/10/20 02:35:31;;;;;;;15.98;11.30;;;;;;;14.45;57.52;99980.03;5085901;28;20055;-70
2021/10/20 02:37:59;;;;;;;13.85;9.93;;;;;;;14.48;57.30;99979.75;5086217;28;20067;-70
2021/10/20 02:40:26;;;;;;;13.95;9.02;;;;;;;14.52;57.16;99973.97;5083709;28;20047;-70
2021/10/20 02:42:53;;;;;;;16.40;9.93;;;;;;;14.56;57.12;99965.72;5086250;28;20575;-70
2021/10/20 02:45:21;;;;;;;15.40;9.07;;;;;;;14.56;57.17;99965.72;5068085;28;20032;-70
2021/10/20 02:47:49;;;;;;;13.95;9.30;;;;;;;14.60;57.13;99970.63;5085634;28;20537;-69
2021/10/20 02:50:16;;;;;;;14.30;9.35;;;;;;;14.63;57.11;99973.00;5085882;28;20044;-69
2021/10/20 02:52:43;;;;;;;13.02;9.80;;;;;;;14.63;56.83;99967.69;5086390;28;20052;-70
2021/10/20 02:55:10;;;;;;;12.43;8.88;;;;;;;14.64;56.81;99958.75;5085785;28;20154;-71
2021/10/20 02:57:37;;;;;;;15.30;9.57;;;;;;;14.69;56.72;99963.63;5086814;28;20043;-70
2021/10/20 03:00:05;;;;;;;14.40;9.45;;;;;;;14.71;56.61;99964.31;5086328;28;20040;-70
2021/10/20 03:02:32;;;;;;;13.52;9.35;;;;;;;14.75;56.52;99960.41;5086428;28;20052;-69
2021/10/20 03:05:00;;;;;;;12.00;9.48;;;;;;;14.81;56.52;99953.66;5086261;28;20048;-69
2021/10/20 03:07:27;;;;;;;12.88;8.85;;;;;;;14.85;56.27;99947.06;5086223;28;20060;-69
2021/10/20 03:09:54;;;;;;;12.95;8.68;;;;;;;14.90;56.29;99955.44;5086396;28;20052;-69
2021/10/20 03:12:21;;;;;;;11.98;8.77;;;;;;;14.95;56.21;99958.50;5087769;28;20074;-69
2021/10/20 03:14:49;;;;;;;12.68;8.50;;;;;;;15.00;56.01;99948.25;5089350;28;20040;-69
2021/10/20 03:17:16;;;;;;;12.88;8.52;;;;;;;15.02;55.79;99951.59;5090203;28;20105;-69
2021/10/20 03:19:44;;;;;;;13.90;8.95;;;;;;;15.06;55.68;99947.66;5088945;28;20044;-68
2021/10/20 03:22:12;;;;;;;11.77;8.00;;;;;;;15.16;55.65;99947.63;5089586;28;20418;-69
2021/10/20 03:24:39;;;;;;;13.13;8.35;;;;;;;15.18;55.46;99944.78;5090186;28;20043;-68
2021/10/20 03:27:06;;;;;;;11.27;8.13;;;;;;;15.18;55.33;99937.66;5089988;28;20130;-69
2021/10/20 03:29:33;;;;;;;14.52;8.15;;;;;;;15.20;55.31;99934.84;5089263;28;20063;-69
2021/10/20 03:32:00;;;;;;;10.27;7.75;;;;;;;15.22;55.27;99927.56;5089233;28;20054;-69
2021/10/20 03:34:27;;;;;;;11.68;7.25;;;;;;;15.22;55.23;99923.06;5088823;28;20055;-69
2021/10/20 03:36:54;;;;;;;13.80;8.05;;;;;;;15.22;55.04;99925.72;5089441;28;20075;-69
2021/10/20 03:39:22;;;;;;;11.65;7.90;;;;;;;15.21;55.22;99913.41;5089305;28;20054;-70
2021/10/20 03:41:50;;;;;;;11.85;8.00;;;;;;;15.25;55.04;99914.78;5087436;28;20054;-70
2021/10/20 03:44:16;;;;;;;10.65;7.43;;;;;;;15.25;55.05;99912.13;5089050;28;20055;-70
2021/10/20 03:46:43;;;;;;;15.70;7.68;;;;;;;15.29;55.04;99915.34;5087932;28;20055;-70
2021/10/20 03:49:10;;;;;;;10.85;7.93;;;;;;;15.31;54.94;99912.53;5090755;28;20050;-70
2021/10/20 03:51:37;;;;;;;12.98;7.45;;;;;;;15.35;54.83;99919.22;5088252;28;20055;-70
2021/10/20 03:54:04;;;;;;;11.15;7.40;;;;;;;15.35;54.87;99920.03;5088987;28;20054;-70
2021/10/20 03:56:32;;;;;;;10.93;8.02;;;;;;;15.37;54.81;99920.72;5087647;28;20044;-69
2021/10/20 03:58:59;;;;;;;10.77;7.60;;;;;;;15.40;54.66;99914.28;5089301;28;20054;-70
2021/10/20 04:01:26;;;;;;;10.43;7.22;;;;;;;15.42;54.62;99909.66;5090407;28;20056;-70
2021/10/20 04:03:53;;;;;;;9.15;6.85;;;;;;;15.45;54.57;99910.19;5088723;28;20391;-69
2021/10/20 04:06:23;;;;;;;14.80;8.77;;;;;;;15.42;54.45;99905.16;5088434;28;20044;-69
2021/10/20 04:08:49;;;;;;;11.70;7.60;;;;;;;15.45;54.39;99902.19;5088285;28;20054;-70
2021/10/20 04:11:17;;;;;;;9.05;6.78;;;;;;;15.45;54.52;99896.88;5086043;28;20044;-69
2021/10/20 04:13:45;;;;;;;12.57;8.10;;;;;;;15.45;54.57;99902.19;5089708;28;20047;-69
2021/10/20 04:16:12;;;;;;;10.55;8.43;;;;;;;15.45;54.49;99904.03;5087958;28;20051;-70
2021/10/20 04:18:39;;;;;;;10.82;8.23;;;;;;;15.46;54.44;99890.53;5086687;28;20052;-69
2021/10/20 04:21:05;;;;;;;14.35;7.85;;;;;;;15.46;54.48;99882.56;5088409;28;20138;-70
2021/10/20 04:23:32;;;;;;;12.85;8.20;;;;;;;15.45;54.52;99883.56;5087724;28;20052;-71
2021/10/20 04:25:59;;;;;;;14.18;7.90;;;;;;;15.49;54.40;99886.75;5088433;28;20044;-70
2021/10/20 04:28:26;;;;;;;12.02;7.80;;;;;;;15.49;54.44;99882.25;5089771;28;20055;-70
2021/10/20 04:30:54;;;;;;;10.90;7.72;;;;;;;15.54;54.47;99892.47;5089108;28;20032;-72
2021/10/20 04:33:21;;;;;;;10.75;7.55;;;;;;;15.50;54.61;99885.75;5087939;28;20048;-69
2021/10/20 04:35:49;;;;;;;11.48;8.45;;;;;;;15.44;54.92;99884.53;5037444;28;20044;-69
2021/10/20 04:38:16;;;;;;;12.35;8.05;;;;;;;15.33;55.69;99883.94;5090406;28;20113;-69
2021/10/20 04:40:43;;;;;;;10.60;7.68;;;;;;;15.27;55.93;99874.75;5088426;28;20055;-69
2021/10/20 04:43:10;;;;;;;12.65;8.27;;;;;;;15.25;55.92;99863.38;5037568;28;20052;-70
2021/10/20 04:45:37;;;;;;;11.32;7.80;;;;;;;15.24;56.30;99875.88;5087975;28;20044;-69
2021/10/20 04:48:06;;;;;;;11.80;7.65;;;;;;;15.21;56.45;99875.31;5088178;28;20127;-69
2021/10/20 04:50:33;;;;;;;15.52;8.50;;;;;;;15.19;56.64;99877.31;5087975;28;20048;-69
2021/10/20 04:53:03;;;;;;;11.77;9.23;;;;;;;15.21;56.90;99862.03;5087381;28;20044;-70
2021/10/20 04:55:29;;;;;;;12.57;8.73;;;;;;;15.18;56.90;99860.50;5088080;28;20538;-70
2021/10/20 04:57:56;;;;;;;13.32;8.07;;;;;;;15.19;56.97;99856.03;5087033;28;20063;-69
2021/10/20 05:00:25;;;;;;;13.07;8.48;;;;;;;15.18;57.09;99857.00;5086612;28;20155;-69
2021/10/20 05:02:52;;;;;;;11.60;8.10;;;;;;;15.18;57.02;99854.34;5088206;28;20041;-73
2021/10/20 05:05:23;;;;;;;11.82;7.47;;;;;;;15.19;57.28;99850.69;5089258;28;20051;-72
2021/10/20 05:07:52;;;;;;;13.43;8.88;;;;;;;15.21;57.25;99856.72;5093012;28;20067;-71
2021/10/20 05:10:20;;;;;;;15.63;9.18;;;;;;;15.21;57.35;99862.03;5090766;28;20044;-71
2021/10/20 05:12:47;;;;;;;13.48;9.63;;;;;;;15.17;57.84;99850.84;5091518;28;20043;-68
2021/10/20 05:15:15;;;;;;;13.45;9.30;;;;;;;15.16;58.02;99843.88;5091049;28;20044;-74
2021/10/20 05:17:43;;;;;;;14.10;9.18;;;;;;;15.18;58.04;99849.88;5089974;28;20051;-74
2021/10/20 05:20:12;;;;;;;12.57;9.10;;;;;;;15.24;58.10;99843.94;5091167;28;20052;-72
2021/10/20 05:22:41;;;;;;;13.30;9.60;;;;;;;15.31;57.98;99851.34;5088189;28;20048;-70
2021/10/20 05:25:10;;;;;;;13.75;8.55;;;;;;;15.31;57.92;99844.19;5089179;28;20048;-67
2021/10/20 05:27:37;;;;;;;12.77;8.55;;;;;;;15.31;58.07;99835.38;5086634;28;20073;-68
2021/10/20 05:30:05;;;;;;;13.65;9.68;;;;;;;15.32;58.25;99837.84;5087315;28;20063;-70
2021/10/20 05:32:32;;;;;;;12.82;8.77;;;;;;;15.35;58.27;99840.22;5089159;28;20052;-74
2021/10/20 05:35:00;;;;;;;13.68;8.45;;;;;;;15.38;58.29;99836.44;5096880;28;20040;-71
2021/10/20 05:37:27;;;;;;;10.68;8.65;;;;;;;15.41;58.23;99841.44;5088291;28;20493;-69
2021/10/20 05:39:56;;;;;;;10.90;7.32;;;;;;;15.41;58.22;99836.97;5081263;28;20441;-68
2021/10/20 05:42:23;;;;;;;13.25;9.93;;;;;;;15.42;58.24;99837.78;5069969;28;20151;-71
2021/10/20 05:44:52;;;;;;;12.10;7.97;;;;;;;15.41;58.22;99836.09;5080233;28;20124;-69
2021/10/20 05:47:20;;;;;;;12.73;8.88;;;;;;;15.42;58.23;99838.63;5083276;28;20070;-70
2021/10/20 05:49:47;;;;;;;13.82;9.35;;;;;;;15.44;58.21;99838.47;5084842;28;20106;-72
2021/10/20 05:52:14;;;;;;;15.13;9.68;;;;;;;15.45;58.31;99848.97;5086435;28;20490;-71
2021/10/20 05:54:41;;;;;;;12.30;8.18;;;;;;;15.47;58.26;99848.81;5084788;28;20047;-68
2021/10/20 05:57:11;;;;;;;10.75;7.75;;;;;;;15.46;58.42;99841.81;5084179;28;20208;-68
2021/10/20 05:59:38;;;;;;;12.90;8.82;;;;;;;15.49;58.30;99841.50;5084912;28;20048;-70
2021/10/20 06:02:06;;;;;;;12.38;9.13;;;;;;;15.52;58.26;99845.69;5083924;28;20044;-69
2021/10/20 06:04:33;;;;;;;12.52;8.40;;;;;;;15.58;58.15;99840.59;5085402;28;20079;-70
2021/10/20 06:07:00;;;;;;;11.07;8.18;;;;;;;15.62;58.05;99838.44;5085939;28;20087;-69
2021/10/20 06:09:27;;;;;;;11.48;8.18;;;;;;;15.65;58.01;99846.13;5084474;28;20495;-69
2021/10/20 06:11:54;;;;;;;13.35;8.65;;;;;;;15.67;58.06;99842.31;5044228;28;20067;-69
2021/10/20 06:14:23;;;;;;;16.50;8.50;;;;;;;15.71;58.08;99845.50;5069782;28;20040;-70
2021/10/20 06:16:50;;;;;;;15.57;9.10;;;;;;;15.73;58.01;99853.34;5083930;28;20075;-68
2021/10/20 06:19:16;;;;;;;14.00;8.57;;;;;;;15.75;58.17;99854.88;5084863;28;20139;-70
2021/10/20 06:21:44;;;;;;;16.15;9.13;;;;;;;15.81;58.15;99848.97;5081664;28;20040;-70
2021/10/20 06:24:11;;;;;;;13.63;9.45;;;;;;;15.86;58.00;99849.34;5070594;28;20086;-70
2021/10/20 06:26:38;;;;;;;11.23;7.90;;;;;;;15.92;57.79;99850.53;5071770;28;20047;-69
2021/10/20 06:29:05;;;;;;;13.73;9.25;;;;;;;15.98;58.03;99847.22;5075028;28;20055;-69
2021/10/20 06:31:33;;;;;;;14.45;8.38;;;;;;;16.07;57.94;99832.16;5091232;28;20036;-69
2021/10/20 06:34:00;;;;;;;11.18;7.95;;;;;;;16.15;57.81;99836.69;5083626;28;20050;-70
2021/10/20 06:36:30;;;;;;;12.63;8.02;;;;;;;16.25;57.83;99829.41;5084505;28;20051;-69
2021/10/20 06:38:59;;;;;;;17.35;8.75;;;;;;;16.39;57.59;99828.00;5080629;28;20585;-68
2021/10/20 06:41:27;;;;;;;12.45;7.93;;;;;;;16.50;57.16;99822.38;5081503;28;20044;-69
2021/10/20 06:43:54;;;;;;;12.45;8.63;;;;;;;16.60;57.26;99817.75;5084749;28;20051;-69
2021/10/20 06:46:22;;;;;;;13.20;8.20;;;;;;;16.70;56.98;99825.63;5065863;28;20051;-69
2021/10/20 06:48:52;;;;;;;12.32;7.78;;;;;;;16.81;56.84;99819.97;5086685;28;20036;-69
2021/10/20 06:51:19;;;;;;;11.13;7.60;;;;;;;16.85;56.57;99815.19;5086232;28;20348;-70
2021/10/20 06:53:48;;;;;;;9.95;7.35;;;;;;;16.87;56.64;99821.22;5087488;28;20138;-70
2021/10/20 06:56:15;;;;;;;10.98;7.68;;;;;;;16.91;56.49;99817.22;5086807;28;20040;-67
2021/10/20 06:58:42;;;;;;;12.15;8.50;;;;;;;17.03;56.10;99814.22;5085883;28;20040;-69
2021/10/20 07:01:10;;;;;;;14.20;9.20;;;;;;;17.14;55.83;99814.78;5080298;28;20048;-70
2021/10/20 07:03:37;;;;;;;13.68;7.80;;;;;;;17.21;55.40;99812.25;5085222;28;20048;-68
2021/10/20 07:06:05;;;;;;;12.45;8.30;;;;;;;17.24;55.57;99817.28;5087463;28;20051;-68
2021/10/20 07:08:32;;;;;;;12.77;8.20;;;;;;;17.27;55.20;99810.75;5086354;28;20048;-70
2021/10/20 07:10:59;;;;;;;14.10;7.80;;;;;;;17.29;55.15;99804.25;5083652;28;20059;-72
2021/10/20 07:13:26;;;;;;;12.52;7.22;;;;;;;17.26;55.25;99799.25;5086917;28;20052;-71
2021/10/20 07:15:54;;;;;;;10.30;7.38;;;;;;;17.22;55.14;99795.25;5086579;28;20051;-69
2021/10/20 07:18:21;;;;;;;11.80;7.43;;;;;;;17.17;55.34;99786.91;5086255;28;20496;-70
2021/10/20 07:20:48;;;;;;;11.63;8.32;;;;;;;17.20;55.03;99791.91;5086032;28;20051;-69
2021/10/20 07:23:17;;;;;;;11.95;8.13;;;;;;;17.29;54.86;99798.09;5085603;28;20055;-69
2021/10/20 07:25:44;;;;;;;9.60;6.40;;;;;;;17.36;54.60;99804.44;5085522;28;20078;-70
2021/10/20 07:28:10;;;;;;;12.52;7.53;;;;;;;17.44;54.29;99809.78;5085468;28;20397;-72
2021/10/20 07:30:38;;;;;;;10.73;8.27;;;;;;;17.43;54.16;99788.56;5084846;28;20102;-69
2021/10/20 07:33:05;;;;;;;9.55;7.22;;;;;;;17.48;54.14;99791.59;5085663;28;20048;-69
2021/10/20 07:35:32;;;;;;;11.20;7.90;;;;;;;17.58;54.05;99797.59;5086037;28;20629;-69
2021/10/20 07:37:59;;;;;;;10.50;7.43;;;;;;;17.70;53.71;99785.56;5085225;28;20687;-70
2021/10/20 07:40:28;;;;;;;10.13;7.80;;;;;;;17.78;53.66;99779.38;5083166;28;20056;-68
2021/10/20 07:42:55;;;;;;;8.00;5.53;;;;;;;17.85;53.52;99775.06;5089593;28;20115;-70
2021/10/20 07:45:23;;;;;;;11.65;7.05;;;;;;;17.87;53.64;99781.06;5086605;28;20044;-69
2021/10/20 07:47:53;;;;;;;11.30;7.85;;;;;;;17.95;53.44;99773.03;5087352;28;20048;-69
2021/10/20 07:50:22;;;;;;;9.07;6.95;;;;;;;17.98;53.54;99766.50;5085420;28;20075;-70
2021/10/20 07:52:49;;;;;;;13.50;7.35;;;;;;;18.02;53.26;99761.66;5084894;28;20044;-70
2021/10/20 07:55:17;;;;;;;9.07;6.78;;;;;;;18.07;53.29;99762.78;5084970;28;20127;-68
2021/10/20 07:57:46;;;;;;;11.82;8.32;;;;;;;18.09;53.30;99766.13;5084893;28;20051;-70
2021/10/20 08:00:14;;;;;;;9.82;6.63;;;;;;;18.13;53.18;99766.63;5081897;28;20045;-69
2021/10/20 08:02:41;;;;;;;9.63;7.28;;;;;;;18.23;53.14;99766.44;5063582;28;20045;-71
2021/10/20 08:05:11;;;;;;;8.93;6.30;;;;;;;18.36;52.91;99758.69;5062715;28;20055;-69
2021/10/20 08:07:44;;;;;;;10.40;7.68;;;;;;;18.44;52.69;99763.16;5062457;28;20048;-70
2021/10/20 08:10:11;;;;;;;10.90;6.75;;;;;;;18.55;52.72;99760.09;5061098;28;20709;-72
2021/10/20 08:12:39;;;;;;;8.35;6.18;;;;;;;18.67;52.44;99745.34;5061418;28;20110;-69
2021/10/20 08:15:10;;;;;;;10.05;7.60;;;;;;;18.78;52.10;99764.66;5060758;28;20046;-71
2021/10/20 08:17:37;;;;;;;11.00;6.60;;;;;;;18.82;51.94;99752.63;5062788;28;20538;-70
2021/10/20 08:20:06;;;;;;;13.52;8.10;;;;;;;18.92;51.90;99753.22;5063373;28;20044;-69
2021/10/20 08:22:33;;;;;;;10.68;6.25;;;;;;;18.98;51.72;99741.81;5062631;28;20048;-72
2021/10/20 08:25:00;;;;;;;10.80;7.05;;;;;;;18.98;51.72;99741.81;5063285;28;20437;-71
2021/10/20 08:27:27;;;;;;;9.57;5.72;;;;;;;19.07;51.49;99746.09;5060922;28;20072;-71
2021/10/20 08:29:54;;;;;;;9.48;6.82;;;;;;;19.11;51.35;99735.84;5066637;28;20458;-71
2021/10/20 08:32:22;;;;;;;10.40;7.18;;;;;;;19.20;50.99;99736.63;5074223;28;20131;-71
2021/10/20 08:34:50;;;;;;;9.75;6.65;;;;;;;19.13;51.07;99725.81;5073619;28;20044;-72
2021/10/20 08:37:18;;;;;;;9.07;6.18;;;;;;;19.11;50.92;99730.50;5075040;28;20044;-71
2021/10/20 08:39:45;;;;;;;10.85;6.32;;;;;;;19.15;51.02;99720.28;5075043;28;20040;-71
2021/10/20 08:42:12;;;;;;;11.27;5.82;;;;;;;19.12;51.07;99716.09;5071582;28;20047;-70
2021/10/20 08:44:40;;;;;;;7.63;5.32;;;;;;;19.08;51.25;99715.63;5064833;28;20052;-71
2021/10/20 08:47:08;;;;;;;7.95;6.43;;;;;;;19.10;51.32;99712.78;5072605;28;20127;-70
2021/10/20 08:49:39;;;;;;;11.57;7.60;;;;;;;19.22;50.88;99711.34;5022617;28;20049;-70
2021/10/20 08:52:06;;;;;;;11.30;6.80;;;;;;;19.38;50.65;99709.53;5044764;28;20139;-70
2021/10/20 08:54:33;;;;;;;10.88;6.43;;;;;;;19.48;50.41;99702.03;5044908;28;20045;-70
2021/10/20 08:57:00;;;;;;;10.00;7.60;;;;;;;19.67;50.49;99704.19;5044602;28;20055;-72
2021/10/20 08:59:27;;;;;;;9.10;6.75;;;;;;;19.81;49.75;99704.44;5044341;28;20436;-70
2021/10/20 09:01:54;;;;;;;11.38;6.70;;;;;;;19.96;49.64;99691.03;5045301;28;20045;-72
2021/10/20 09:04:22;;;;;;;12.90;7.10;;;;;;;19.98;49.58;99689.81;5044924;28;20052;-70
2021/10/20 09:06:50;;;;;;;9.43;6.35;;;;;;;20.01;49.72;99683.25;5015900;28;20068;-71
2021/10/20 09:09:18;;;;;;;10.80;6.60;;;;;;;20.19;49.31;99685.53;5062954;28;20101;-71
2021/10/20 09:11:46;;;;;;;8.80;5.53;;;;;;;20.33;49.08;99690.06;5074644;28;20049;-72
2021/10/20 09:14:19;;;;;;;8.77;6.85;;;;;;;20.51;48.81;99684.25;5063912;28;20048;-71
2021/10/20 09:16:46;;;;;;;8.80;6.53;;;;;;;20.63;48.28;99687.28;5064205;28;20044;-70
2021/10/20 09:19:14;;;;;;;8.60;5.43;;;;;;;20.71;48.21;99676.44;5065714;28;20064;-71
2021/10/20 09:21:48;;;;;;;9.05;6.63;;;;;;;20.91;47.85;99682.00;5064438;28;20048;-70
2021/10/20 09:24:17;;;;;;;7.27;5.20;;;;;;;20.95;47.74;99674.41;5064694;28;20067;-72
2021/10/20 09:26:43;;;;;;;9.07;5.65;;;;;;;21.00;47.57;99671.97;5063263;28;20144;-72
2021/10/20 09:29:20;;;;;;;7.63;5.22;;;;;;;21.17;47.46;99684.06;5066427;28;20064;-71
2021/10/20 09:31:48;;;;;;;9.05;5.50;;;;;;;21.12;47.03;99681.16;5083502;28;20063;-73
2021/10/20 09:34:18;;;;;;;8.75;5.70;;;;;;;21.25;47.08;99680.44;5082746;28;20044;-71
2021/10/20 09:36:45;;;;;;;6.82;4.90;;;;;;;21.36;46.56;99673.69;5083833;28;20052;-71
2021/10/20 09:39:14;;;;;;;8.88;6.15;;;;;;;21.36;46.51;99671.00;5084005;28;20051;-73
2021/10/20 09:41:43;;;;;;;7.13;5.32;;;;;;;21.42;46.48;99670.22;5081030;28;20098;-71
2021/10/20 09:44:14;;;;;;;8.07;5.43;;;;;;;21.61;46.75;99659.81;5085716;28;20385;-71
2021/10/20 09:46:42;;;;;;;7.30;5.45;;;;;;;21.70;46.34;99658.66;5085249;28;20047;-71
2021/10/20 09:49:17;;;;;;;8.38;5.63;;;;;;;21.61;46.31;99662.50;5083208;28;20044;-72
2021/10/20 09:51:44;;;;;;;7.27;5.17;;;;;;;21.60;46.30;99663.53;5083204;28;20040;-71
2021/10/20 09:54:24;;;;;;;8.55;5.18;;;;;;;21.53;46.48;99648.19;5083310;28;20305;-71
2021/10/20 09:56:57;;;;;;;11.38;6.20;;;;;;;21.70;46.23;99653.28;5082307;28;20392;-72
2021/10/20 09:59:26;;;;;;;7.90;5.65;;;;;;;21.66;46.31;99641.25;5083000;28;20073;-71
2021/10/20 10:01:54;;;;;;;13.18;6.00;;;;;;;21.60;46.24;99639.34;5082920;28;20273;-70
2021/10/20 10:04:21;;;;;;;7.35;5.07;;;;;;;21.68;46.13;99639.19;5083022;28;20400;-73
2021/10/20 10:06:50;;;;;;;8.93;5.03;;;;;;;21.76;45.84;99636.34;5082718;28;20147;-71
2021/10/20 10:09:18;;;;;;;9.73;6.75;;;;;;;21.90;45.58;99640.75;5081883;28;20048;-71
2021/10/20 10:11:50;;;;;;;8.60;5.90;;;;;;;21.93;45.92;99631.44;5081185;28;20048;-72
2021/10/20 10:14:22;;;;;;;12.27;7.10;;;;;;;21.92;45.75;99637.88;5082815;28;20054;-72
2021/10/20 10:16:53;;;;;;;9.05;6.30;;;;;;;21.71;45.76;99636.09;5082750;28;20538;-71
2021/10/20 10:19:24;;;;;;;8.63;5.97;;;;;;;21.50;46.48;99635.19;5082211;28;20048;-73
2021/10/20 10:21:52;;;;;;;8.25;5.90;;;;;;;21.36;46.71;99634.22;5082116;28;20051;-72
2021/10/20 10:24:21;;;;;;;10.02;6.93;;;;;;;21.25;46.41;99636.59;5081800;28;20051;-70
2021/10/20 10:27:03;;;;;;;11.50;6.70;;;;;;;21.20;46.84;99638.03;5084506;28;20447;-71
2021/10/20 10:29:33;;;;;;;10.13;7.07;;;;;;;21.29;46.84;99624.47;5083780;28;20052;-71
2021/10/20 10:32:05;;;;;;;8.10;5.50;;;;;;;21.45;46.59;99620.66;5081964;28;20615;-71
2021/10/20 10:34:35;;;;;;;7.13;5.22;;;;;;;21.64;46.15;99621.81;5082259;28;20055;-72
2021/10/20 10:37:02;;;;;;;9.57;6.93;;;;;;;21.78;46.12;99610.09;5084752;28;20048;-72
2021/10/20 10:39:31;;;;;;;9.48;6.93;;;;;;;21.85;45.88;99616.31;5085817;28;20048;-70
2021/10/20 10:41:59;;;;;;;10.18;6.28;;;;;;;21.90;45.95;99602.28;5081172;28;20059;-70
2021/10/20 10:44:27;;;;;;;9.57;6.70;;;;;;;21.93;45.74;99609.94;5084555;28;20396;-70
2021/10/20 10:47:18;;;;;;;9.02;5.63;;;;;;;21.89;45.73;99606.81;5081965;28;20199;-70
2021/10/20 10:49:52;;;;;;;9.27;5.65;;;;;;;21.82;45.84;99603.28;5083260;28;20052;-72
2021/10/20 10:52:21;;;;;;;8.57;5.45;;;;;;;21.85;45.70;99588.63;5083787;28;20063;-72
2021/10/20 10:55:00;;;;;;;7.32;5.05;;;;;;;21.87;45.88;99590.06;5082280;28;20492;-69
2021/10/20 10:57:41;;;;;;;11.40;5.50;;;;;;;21.90;45.35;99578.09;5082841;28;20055;-72
2021/10/20 11:00:27;;;;;;;8.10;4.35;;;;;;;21.96;45.64;99575.41;5083004;28;20048;-71
2021/10/20 11:02:57;;;;;;;7.90;4.88;;;;;;;22.08;45.38;99574.84;5047551;28;20429;-73
2021/10/20 11:05:25;;;;;;;7.43;5.10;;;;;;;22.08;45.16;99567.59;5080971;28;20047;-68
2021/10/20 11:07:59;;;;;;;10.32;5.78;;;;;;;22.09;45.47;99555.81;5081257;28;20404;-71
2021/10/20 11:10:26;;;;;;;7.35;4.30;;;;;;;22.10;45.11;99553.94;5077274;28;20083;-71
2021/10/20 11:12:55;;;;;;;9.27;4.85;;;;;;;22.10;45.62;99556.63;5079625;28;20055;-70
2021/10/20 11:15:24;;;;;;;10.45;5.80;;;;;;;22.11;45.41;99548.38;5080688;28;20040;-69
2021/10/20 11:17:53;;;;;;;8.70;4.70;;;;;;;22.12;45.53;99539.25;5083485;28;20051;-73
2021/10/20 11:20:23;;;;;;;6.78;4.55;;;;;;;22.20;45.23;99540.94;5076941;28;20073;-73
2021/10/20 11:22:52;;;;;;;7.60;4.57;;;;;;;22.26;45.10;99534.75;5078684;28;20042;-66
2021/10/20 11:25:21;;;;;;;8.15;5.05;;;;;;;22.42;44.94;99540.75;5081388;28;20071;-67
2021/10/20 11:27:49;;;;;;;10.70;5.45;;;;;;;22.52;44.57;99525.84;5077979;28;20047;-69